sensor_id;sensor_type;location;lat;lon;timestamp;P1;durP1;ratioP1;P2;durP2;ratioP2
6651;SDS011;3362;50.892;10.692;2022-09-28T00:01:51;1.55;;;1.17;;
6651;SDS011;3362;50.892;10.692;2022-09-28T00:04:18;1.65;;;0.73;;
6651;SDS011;3362;50.892;10.692;2022-09-28T00:06:45;1.20;;;0.70;;
6651;SDS011;3362;50.892;10.692;2022-09-28T00:09:13;2.20;;;0.73;;
6651;SDS011;3362;50.892;10.692;2022-09-28T00:11:39;1.75;;;0.50;;
6651;SDS011;3362;50.892;10.692;2022-09-28T00:14:05;0.28;;;0.28;;
6651;SDS011;3362;50.892;10.692;2022-09-28T00:16:33;0.57;;;0.40;;
6651;SDS011;3362;50.892;10.692;2022-09-28T00:19:00;0.43;;;0.43;;
6651;SDS011;3362;50.892;10.692;2022-09-28T00:21:27;0.40;;;0.40;;
6651;SDS011;3362;50.892;10.692;2022-09-28T00:23:54;0.47;;;0.47;;
6651;SDS011;3362;50.892;10.692;2022-09-28T00:26:41;2.22;;;0.50;;
6651;SDS011;3362;50.892;10.692;2022-09-28T00:29:12;0.40;;;0.30;;
6651;SDS011;3362;50.892;10.692;2022-09-28T00:31:40;0.50;;;0.45;;
6651;SDS011;3362;50.892;10.692;2022-09-28T00:34:06;0.40;;;0.40;;
6651;SDS011;3362;50.892;10.692;2022-09-28T00:36:32;1.35;;;0.55;;
6651;SDS011;3362;50.892;10.692;2022-09-28T00:39:02;0.63;;;0.50;;
6651;SDS011;3362;50.892;10.692;2022-09-28T00:41:28;1.40;;;0.60;;
6651;SDS011;3362;50.892;10.692;2022-09-28T00:46:37;1.40;;;0.43;;
6651;SDS011;3362;50.892;10.692;2022-09-28T00:49:03;0.60;;;0.60;;
6651;SDS011;3362;50.892;10.692;2022-09-28T00:51:32;0.73;;;0.70;;
6651;SDS011;3362;50.892;10.692;2022-09-28T00:54:00;5.07;;;0.68;;
6651;SDS011;3362;50.892;10.692;2022-09-28T00:56:28;0.88;;;0.77;;
6651;SDS011;3362;50.892;10.692;2022-09-28T00:58:54;0.65;;;0.65;;
6651;SDS011;3362;50.892;10.692;2022-09-28T01:01:22;2.30;;;0.80;;
6651;SDS011;3362;50.892;10.692;2022-09-28T01:03:49;0.68;;;0.57;;
6651;SDS011;3362;50.892;10.692;2022-09-28T01:06:16;1.70;;;1.13;;
6651;SDS011;3362;50.892;10.692;2022-09-28T01:08:43;0.80;;;0.80;;
6651;SDS011;3362;50.892;10.692;2022-09-28T01:11:10;0.80;;;0.60;;
6651;SDS011;3362;50.892;10.692;2022-09-28T01:13:36;1.10;;;0.80;;
6651;SDS011;3362;50.892;10.692;2022-09-28T01:16:06;2.45;;;0.98;;
6651;SDS011;3362;50.892;10.692;2022-09-28T01:18:35;0.98;;;0.98;;
6651;SDS011;3362;50.892;10.692;2022-09-28T01:21:07;2.13;;;0.80;;
6651;SDS011;3362;50.892;10.692;2022-09-28T01:23:46;3.22;;;1.00;;
6651;SDS011;3362;50.892;10.692;2022-09-28T01:26:28;1.38;;;1.20;;
6651;SDS011;3362;50.892;10.692;2022-09-28T01:28:57;1.65;;;1.20;;
6651;SDS011;3362;50.892;10.692;2022-09-28T01:31:25;2.40;;;1.15;;
6651;SDS011;3362;50.892;10.692;2022-09-28T01:33:55;2.72;;;1.35;;
6651;SDS011;3362;50.892;10.692;2022-09-28T01:36:23;1.65;;;1.55;;
6651;SDS011;3362;50.892;10.692;2022-09-28T01:38:51;1.30;;;1.20;;
6651;SDS011;3362;50.892;10.692;2022-09-28T01:41:18;3.28;;;1.67;;
6651;SDS011;3362;50.892;10.692;2022-09-28T01:43:47;1.80;;;1.40;;
6651;SDS011;3362;50.892;10.692;2022-09-28T01:46:17;4.40;;;2.00;;
6651;SDS011;3362;50.892;10.692;2022-09-28T01:48:44;1.38;;;1.27;;
6651;SDS011;3362;50.892;10.692;2022-09-28T01:51:15;4.35;;;1.92;;
6651;SDS011;3362;50.892;10.692;2022-09-28T01:53:43;5.13;;;1.90;;
6651;SDS011;3362;50.892;10.692;2022-09-28T01:56:12;1.35;;;1.25;;
6651;SDS011;3362;50.892;10.692;2022-09-28T01:58:41;1.65;;;1.50;;
6651;SDS011;3362;50.892;10.692;2022-09-28T02:01:12;2.45;;;1.27;;
6651;SDS011;3362;50.892;10.692;2022-09-28T02:03:40;5.55;;;1.40;;
6651;SDS011;3362;50.892;10.692;2022-09-28T02:06:11;1.83;;;1.58;;
6651;SDS011;3362;50.892;10.692;2022-09-28T02:08:41;2.00;;;1.42;;
6651;SDS011;3362;50.892;10.692;2022-09-28T02:11:10;2.25;;;1.63;;
6651;SDS011;3362;50.892;10.692;2022-09-28T02:13:38;3.47;;;1.50;;
6651;SDS011;3362;50.892;10.692;2022-09-28T02:16:08;1.92;;;1.73;;
6651;SDS011;3362;50.892;10.692;2022-09-28T02:18:38;4.03;;;1.73;;
6651;SDS011;3362;50.892;10.692;2022-09-28T02:21:06;4.65;;;1.92;;
6651;SDS011;3362;50.892;10.692;2022-09-28T02:23:34;1.60;;;1.33;;
6651;SDS011;3362;50.892;10.692;2022-09-28T02:26:01;1.80;;;1.60;;
6651;SDS011;3362;50.892;10.692;2022-09-28T02:28:28;3.42;;;1.63;;
6651;SDS011;3362;50.892;10.692;2022-09-28T02:30:55;1.27;;;1.17;;
6651;SDS011;3362;50.892;10.692;2022-09-28T02:33:22;1.70;;;1.50;;
6651;SDS011;3362;50.892;10.692;2022-09-28T02:35:50;1.20;;;0.98;;
6651;SDS011;3362;50.892;10.692;2022-09-28T02:38:17;3.40;;;1.83;;
6651;SDS011;3362;50.892;10.692;2022-09-28T02:40:44;3.38;;;1.60;;
6651;SDS011;3362;50.892;10.692;2022-09-28T02:43:13;2.05;;;1.20;;
6651;SDS011;3362;50.892;10.692;2022-09-28T02:45:45;1.38;;;1.25;;
6651;SDS011;3362;50.892;10.692;2022-09-28T02:48:15;1.58;;;0.98;;
6651;SDS011;3362;50.892;10.692;2022-09-28T02:50:47;3.30;;;1.33;;
6651;SDS011;3362;50.892;10.692;2022-09-28T02:53:27;0.80;;;0.80;;
6651;SDS011;3362;50.892;10.692;2022-09-28T02:56:04;1.77;;;1.02;;
6651;SDS011;3362;50.892;10.692;2022-09-28T02:58:37;4.47;;;0.93;;
6651;SDS011;3362;50.892;10.692;2022-09-28T03:01:06;0.75;;;0.75;;
6651;SDS011;3362;50.892;10.692;2022-09-28T03:03:37;1.27;;;0.73;;
6651;SDS011;3362;50.892;10.692;2022-09-28T03:06:08;1.20;;;0.80;;
6651;SDS011;3362;50.892;10.692;2022-09-28T03:08:37;0.85;;;0.80;;
6651;SDS011;3362;50.892;10.692;2022-09-28T03:11:06;1.15;;;0.60;;
6651;SDS011;3362;50.892;10.692;2022-09-28T03:13:34;3.28;;;1.10;;
6651;SDS011;3362;50.892;10.692;2022-09-28T03:16:06;2.90;;;0.80;;
6651;SDS011;3362;50.892;10.692;2022-09-28T03:18:32;4.32;;;0.90;;
6651;SDS011;3362;50.892;10.692;2022-09-28T03:20:58;1.35;;;0.80;;
6651;SDS011;3362;50.892;10.692;2022-09-28T03:23:25;3.10;;;0.90;;
6651;SDS011;3362;50.892;10.692;2022-09-28T03:25:52;1.55;;;0.77;;
6651;SDS011;3362;50.892;10.692;2022-09-28T03:28:20;2.40;;;0.85;;
6651;SDS011;3362;50.892;10.692;2022-09-28T03:30:47;0.60;;;0.60;;
6651;SDS011;3362;50.892;10.692;2022-09-28T03:33:13;1.98;;;0.90;;
6651;SDS011;3362;50.892;10.692;2022-09-28T03:35:39;1.23;;;0.95;;
6651;SDS011;3362;50.892;10.692;2022-09-28T03:38:06;1.08;;;0.73;;
6651;SDS011;3362;50.892;10.692;2022-09-28T03:40:32;0.68;;;0.60;;
6651;SDS011;3362;50.892;10.692;2022-09-28T03:43:00;1.58;;;0.68;;
6651;SDS011;3362;50.892;10.692;2022-09-28T03:45:26;1.25;;;0.73;;
6651;SDS011;3362;50.892;10.692;2022-09-28T03:47:52;0.65;;;0.65;;
6651;SDS011;3362;50.892;10.692;2022-09-28T03:50:18;2.30;;;0.80;;
6651;SDS011;3362;50.892;10.692;2022-09-28T03:52:44;0.77;;;0.68;;
6651;SDS011;3362;50.892;10.692;2022-09-28T03:55:11;1.35;;;0.82;;
6651;SDS011;3362;50.892;10.692;2022-09-28T03:57:37;1.45;;;0.90;;
6651;SDS011;3362;50.892;10.692;2022-09-28T04:00:05;1.98;;;0.52;;
6651;SDS011;3362;50.892;10.692;2022-09-28T04:02:32;0.40;;;0.40;;
6651;SDS011;3362;50.892;10.692;2022-09-28T04:04:59;0.43;;;0.43;;
6651;SDS011;3362;50.892;10.692;2022-09-28T04:07:25;0.82;;;0.40;;
6651;SDS011;3362;50.892;10.692;2022-09-28T04:09:51;0.30;;;0.30;;
6651;SDS011;3362;50.892;10.692;2022-09-28T04:12:17;0.50;;;0.50;;
6651;SDS011;3362;50.892;10.692;2022-09-28T04:14:44;0.50;;;0.38;;
6651;SDS011;3362;50.892;10.692;2022-09-28T04:17:11;0.95;;;0.55;;
6651;SDS011;3362;50.892;10.692;2022-09-28T04:19:37;0.43;;;0.43;;
6651;SDS011;3362;50.892;10.692;2022-09-28T04:22:03;1.10;;;1.00;;
6651;SDS011;3362;50.892;10.692;2022-09-28T04:24:30;0.50;;;0.50;;
6651;SDS011;3362;50.892;10.692;2022-09-28T04:26:56;0.50;;;0.50;;
6651;SDS011;3362;50.892;10.692;2022-09-28T04:29:43;0.20;;;0.20;;
6651;SDS011;3362;50.892;10.692;2022-09-28T04:32:08;0.35;;;0.28;;
6651;SDS011;3362;50.892;10.692;2022-09-28T04:34:36;0.10;;;0.10;;
6651;SDS011;3362;50.892;10.692;2022-09-28T04:37:02;0.17;;;0.17;;
6651;SDS011;3362;50.892;10.692;2022-09-28T04:39:28;0.20;;;0.20;;
6651;SDS011;3362;50.892;10.692;2022-09-28T04:41:54;0.20;;;0.10;;
6651;SDS011;3362;50.892;10.692;2022-09-28T04:44:21;0.57;;;0.10;;
6651;SDS011;3362;50.892;10.692;2022-09-28T04:46:47;0.10;;;0.10;;
6651;SDS011;3362;50.892;10.692;2022-09-28T04:49:13;0.10;;;0.10;;
6651;SDS011;3362;50.892;10.692;2022-09-28T04:51:41;0.08;;;0.08;;
6651;SDS011;3362;50.892;10.692;2022-09-28T04:54:07;1.83;;;0.13;;
6651;SDS011;3362;50.892;10.692;2022-09-28T04:56:33;0.17;;;0.17;;
6651;SDS011;3362;50.892;10.692;2022-09-28T04:58:59;0.47;;;0.25;;
6651;SDS011;3362;50.892;10.692;2022-09-28T05:01:25;2.47;;;0.10;;
6651;SDS011;3362;50.892;10.692;2022-09-28T05:03:51;0.28;;;0.00;;
6651;SDS011;3362;50.892;10.692;2022-09-28T05:06:18;0.20;;;0.17;;
6651;SDS011;3362;50.892;10.692;2022-09-28T05:08:46;0.10;;;0.10;;
6651;SDS011;3362;50.892;10.692;2022-09-28T05:11:12;0.15;;;0.15;;
6651;SDS011;3362;50.892;10.692;2022-09-28T05:13:39;0.10;;;0.10;;
6651;SDS011;3362;50.892;10.692;2022-09-28T05:16:07;0.88;;;0.10;;
6651;SDS011;3362;50.892;10.692;2022-09-28T05:18:33;0.10;;;0.10;;
6651;SDS011;3362;50.892;10.692;2022-09-28T05:21:00;0.13;;;0.13;;
6651;SDS011;3362;50.892;10.692;2022-09-28T05:23:26;0.52;;;0.10;;
6651;SDS011;3362;50.892;10.692;2022-09-28T05:25:54;0.10;;;0.10;;
6651;SDS011;3362;50.892;10.692;2022-09-28T05:28:22;2.55;;;0.10;;
6651;SDS011;3362;50.892;10.692;2022-09-28T05:30:49;0.08;;;0.08;;
6651;SDS011;3362;50.892;10.692;2022-09-28T05:33:16;0.00;;;0.00;;
6651;SDS011;3362;50.892;10.692;2022-09-28T05:35:42;0.32;;;0.17;;
6651;SDS011;3362;50.892;10.692;2022-09-28T05:38:08;0.03;;;0.00;;
6651;SDS011;3362;50.892;10.692;2022-09-28T05:40:34;0.00;;;0.00;;
6651;SDS011;3362;50.892;10.692;2022-09-28T05:43:02;2.10;;;0.20;;
6651;SDS011;3362;50.892;10.692;2022-09-28T05:45:28;0.10;;;0.10;;
6651;SDS011;3362;50.892;10.692;2022-09-28T05:47:54;0.20;;;0.10;;
6651;SDS011;3362;50.892;10.692;2022-09-28T05:50:21;0.75;;;0.22;;
6651;SDS011;3362;50.892;10.692;2022-09-28T05:52:55;0.10;;;0.10;;
6651;SDS011;3362;50.892;10.692;2022-09-28T05:55:21;1.45;;;0.10;;
6651;SDS011;3362;50.892;10.692;2022-09-28T05:57:48;0.35;;;0.10;;
6651;SDS011;3362;50.892;10.692;2022-09-28T06:00:15;0.17;;;0.15;;
6651;SDS011;3362;50.892;10.692;2022-09-28T06:02:42;0.10;;;0.10;;
6651;SDS011;3362;50.892;10.692;2022-09-28T06:05:08;0.10;;;0.10;;
6651;SDS011;3362;50.892;10.692;2022-09-28T06:07:34;0.00;;;0.00;;
6651;SDS011;3362;50.892;10.692;2022-09-28T06:10:00;0.50;;;0.30;;
6651;SDS011;3362;50.892;10.692;2022-09-28T06:12:27;0.05;;;0.00;;
6651;SDS011;3362;50.892;10.692;2022-09-28T06:14:53;0.20;;;0.10;;
6651;SDS011;3362;50.892;10.692;2022-09-28T06:17:20;0.20;;;0.20;;
6651;SDS011;3362;50.892;10.692;2022-09-28T06:19:46;0.28;;;0.28;;
6651;SDS011;3362;50.892;10.692;2022-09-28T06:22:13;0.80;;;0.38;;
6651;SDS011;3362;50.892;10.692;2022-09-28T06:24:39;0.17;;;0.17;;
6651;SDS011;3362;50.892;10.692;2022-09-28T06:27:05;3.42;;;0.38;;
6651;SDS011;3362;50.892;10.692;2022-09-28T06:29:31;0.30;;;0.15;;
6651;SDS011;3362;50.892;10.692;2022-09-28T06:31:57;0.10;;;0.10;;
6651;SDS011;3362;50.892;10.692;2022-09-28T06:34:25;0.47;;;0.20;;
6651;SDS011;3362;50.892;10.692;2022-09-28T06:36:51;1.45;;;0.20;;
6651;SDS011;3362;50.892;10.692;2022-09-28T06:39:17;2.08;;;0.20;;
6651;SDS011;3362;50.892;10.692;2022-09-28T06:41:43;0.40;;;0.10;;
6651;SDS011;3362;50.892;10.692;2022-09-28T06:44:10;0.15;;;0.15;;
6651;SDS011;3362;50.892;10.692;2022-09-28T06:46:36;0.08;;;0.08;;
6651;SDS011;3362;50.892;10.692;2022-09-28T06:49:04;0.20;;;0.10;;
6651;SDS011;3362;50.892;10.692;2022-09-28T06:51:34;2.28;;;0.10;;
6651;SDS011;3362;50.892;10.692;2022-09-28T06:54:01;1.55;;;0.40;;
6651;SDS011;3362;50.892;10.692;2022-09-28T06:56:27;0.20;;;0.10;;
6651;SDS011;3362;50.892;10.692;2022-09-28T06:58:54;1.55;;;0.20;;
6651;SDS011;3362;50.892;10.692;2022-09-28T07:01:20;0.15;;;0.15;;
6651;SDS011;3362;50.892;10.692;2022-09-28T07:03:46;0.45;;;0.17;;
6651;SDS011;3362;50.892;10.692;2022-09-28T07:06:12;0.25;;;0.10;;
6651;SDS011;3362;50.892;10.692;2022-09-28T07:08:40;0.65;;;0.20;;
6651;SDS011;3362;50.892;10.692;2022-09-28T07:11:06;0.10;;;0.05;;
6651;SDS011;3362;50.892;10.692;2022-09-28T07:13:32;0.17;;;0.17;;
6651;SDS011;3362;50.892;10.692;2022-09-28T07:15:59;0.10;;;0.10;;
6651;SDS011;3362;50.892;10.692;2022-09-28T07:18:25;0.20;;;0.13;;
6651;SDS011;3362;50.892;10.692;2022-09-28T07:20:53;1.23;;;0.25;;
6651;SDS011;3362;50.892;10.692;2022-09-28T07:23:20;1.45;;;0.10;;
6651;SDS011;3362;50.892;10.692;2022-09-28T07:25:48;0.45;;;0.20;;
6651;SDS011;3362;50.892;10.692;2022-09-28T07:28:14;1.13;;;0.30;;
6651;SDS011;3362;50.892;10.692;2022-09-28T07:30:41;0.10;;;0.10;;
6651;SDS011;3362;50.892;10.692;2022-09-28T07:33:09;0.08;;;0.08;;
6651;SDS011;3362;50.892;10.692;2022-09-28T07:35:36;0.73;;;0.20;;
6651;SDS011;3362;50.892;10.692;2022-09-28T07:38:03;0.13;;;0.13;;
6651;SDS011;3362;50.892;10.692;2022-09-28T07:40:30;0.35;;;0.35;;
6651;SDS011;3362;50.892;10.692;2022-09-28T07:43:15;0.50;;;0.30;;
6651;SDS011;3362;50.892;10.692;2022-09-28T07:45:44;1.45;;;0.50;;
6651;SDS011;3362;50.892;10.692;2022-09-28T07:48:11;0.75;;;0.50;;
6651;SDS011;3362;50.892;10.692;2022-09-28T07:50:40;0.68;;;0.43;;
6651;SDS011;3362;50.892;10.692;2022-09-28T07:53:06;1.75;;;0.52;;
6651;SDS011;3362;50.892;10.692;2022-09-28T07:55:32;0.30;;;0.30;;
6651;SDS011;3362;50.892;10.692;2022-09-28T07:57:58;0.90;;;0.50;;
6651;SDS011;3362;50.892;10.692;2022-09-28T08:00:27;0.85;;;0.40;;
6651;SDS011;3362;50.892;10.692;2022-09-28T08:02:54;0.30;;;0.30;;
6651;SDS011;3362;50.892;10.692;2022-09-28T08:05:20;0.50;;;0.50;;
6651;SDS011;3362;50.892;10.692;2022-09-28T08:07:46;0.63;;;0.40;;
6651;SDS011;3362;50.892;10.692;2022-09-28T08:10:12;0.43;;;0.40;;
6651;SDS011;3362;50.892;10.692;2022-09-28T08:12:38;0.50;;;0.50;;
6651;SDS011;3362;50.892;10.692;2022-09-28T08:15:05;0.43;;;0.35;;
6651;SDS011;3362;50.892;10.692;2022-09-28T08:17:36;0.30;;;0.30;;
6651;SDS011;3362;50.892;10.692;2022-09-28T08:20:03;0.28;;;0.28;;
6651;SDS011;3362;50.892;10.692;2022-09-28T08:22:47;4.15;;;0.70;;
6651;SDS011;3362;50.892;10.692;2022-09-28T08:25:13;2.40;;;0.52;;
6651;SDS011;3362;50.892;10.692;2022-09-28T08:27:39;0.95;;;0.38;;
6651;SDS011;3362;50.892;10.692;2022-09-28T08:30:06;0.82;;;0.47;;
6651;SDS011;3362;50.892;10.692;2022-09-28T08:32:32;3.88;;;0.82;;
6651;SDS011;3362;50.892;10.692;2022-09-28T08:35:01;0.77;;;0.60;;
6651;SDS011;3362;50.892;10.692;2022-09-28T08:37:27;1.15;;;0.93;;
6651;SDS011;3362;50.892;10.692;2022-09-28T08:39:53;0.73;;;0.70;;
6651;SDS011;3362;50.892;10.692;2022-09-28T08:42:26;0.57;;;0.52;;
6651;SDS011;3362;50.892;10.692;2022-09-28T08:44:55;0.98;;;0.60;;
6651;SDS011;3362;50.892;10.692;2022-09-28T08:47:23;1.05;;;0.70;;
6651;SDS011;3362;50.892;10.692;2022-09-28T08:50:09;0.90;;;0.70;;
6651;SDS011;3362;50.892;10.692;2022-09-28T08:52:39;0.65;;;0.63;;
6651;SDS011;3362;50.892;10.692;2022-09-28T08:55:07;1.10;;;0.80;;
6651;SDS011;3362;50.892;10.692;2022-09-28T08:57:36;1.00;;;0.90;;
6651;SDS011;3362;50.892;10.692;2022-09-28T09:00:03;1.05;;;0.80;;
6651;SDS011;3362;50.892;10.692;2022-09-28T09:02:30;3.67;;;0.95;;
6651;SDS011;3362;50.892;10.692;2022-09-28T09:04:57;2.08;;;0.75;;
6651;SDS011;3362;50.892;10.692;2022-09-28T09:10:15;4.65;;;1.23;;
6651;SDS011;3362;50.892;10.692;2022-09-28T09:12:47;0.80;;;0.70;;
6651;SDS011;3362;50.892;10.692;2022-09-28T09:15:24;1.00;;;0.63;;
6651;SDS011;3362;50.892;10.692;2022-09-28T09:17:56;0.80;;;0.60;;
6651;SDS011;3362;50.892;10.692;2022-09-28T09:20:28;0.80;;;0.80;;
6651;SDS011;3362;50.892;10.692;2022-09-28T09:22:58;2.28;;;0.80;;
6651;SDS011;3362;50.892;10.692;2022-09-28T09:25:27;3.00;;;1.13;;
6651;SDS011;3362;50.892;10.692;2022-09-28T09:28:04;0.50;;;0.45;;
6651;SDS011;3362;50.892;10.692;2022-09-28T09:30:35;1.02;;;0.70;;
6651;SDS011;3362;50.892;10.692;2022-09-28T09:33:11;8.20;;;0.80;;
6651;SDS011;3362;50.892;10.692;2022-09-28T09:35:49;0.60;;;0.60;;
6651;SDS011;3362;50.892;10.692;2022-09-28T09:38:22;0.70;;;0.57;;
6651;SDS011;3362;50.892;10.692;2022-09-28T09:41:00;0.55;;;0.52;;
6651;SDS011;3362;50.892;10.692;2022-09-28T09:43:34;1.77;;;0.85;;
6651;SDS011;3362;50.892;10.692;2022-09-28T09:46:07;2.88;;;0.85;;
6651;SDS011;3362;50.892;10.692;2022-09-28T09:48:36;2.50;;;1.10;;
6651;SDS011;3362;50.892;10.692;2022-09-28T09:51:03;1.00;;;0.90;;
6651;SDS011;3362;50.892;10.692;2022-09-28T09:53:32;2.03;;;1.10;;
6651;SDS011;3362;50.892;10.692;2022-09-28T09:56:05;1.60;;;1.13;;
6651;SDS011;3362;50.892;10.692;2022-09-28T09:58:35;1.35;;;0.95;;
6651;SDS011;3362;50.892;10.692;2022-09-28T10:01:04;2.40;;;1.40;;
6651;SDS011;3362;50.892;10.692;2022-09-28T10:03:32;4.18;;;1.50;;
6651;SDS011;3362;50.892;10.692;2022-09-28T10:06:00;1.38;;;1.10;;
6651;SDS011;3362;50.892;10.692;2022-09-28T10:08:28;2.45;;;1.35;;
6651;SDS011;3362;50.892;10.692;2022-09-28T10:11:01;2.28;;;1.20;;
6651;SDS011;3362;50.892;10.692;2022-09-28T10:13:32;1.85;;;1.38;;
6651;SDS011;3362;50.892;10.692;2022-09-28T10:15:59;1.80;;;1.38;;
6651;SDS011;3362;50.892;10.692;2022-09-28T10:18:25;1.95;;;1.30;;
6651;SDS011;3362;50.892;10.692;2022-09-28T10:20:52;1.38;;;1.20;;
6651;SDS011;3362;50.892;10.692;2022-09-28T10:23:19;2.13;;;1.40;;
6651;SDS011;3362;50.892;10.692;2022-09-28T10:25:47;3.00;;;1.60;;
6651;SDS011;3362;50.892;10.692;2022-09-28T10:28:14;2.45;;;1.38;;
6651;SDS011;3362;50.892;10.692;2022-09-28T10:30:44;2.17;;;1.35;;
6651;SDS011;3362;50.892;10.692;2022-09-28T10:33:25;3.70;;;2.00;;
6651;SDS011;3362;50.892;10.692;2022-09-28T10:35:52;1.67;;;1.58;;
6651;SDS011;3362;50.892;10.692;2022-09-28T10:38:18;3.03;;;1.92;;
6651;SDS011;3362;50.892;10.692;2022-09-28T10:40:46;3.05;;;1.80;;
6651;SDS011;3362;50.892;10.692;2022-09-28T10:43:19;3.78;;;2.03;;
6651;SDS011;3362;50.892;10.692;2022-09-28T10:45:47;4.35;;;1.42;;
6651;SDS011;3362;50.892;10.692;2022-09-28T10:48:16;2.20;;;1.77;;
6651;SDS011;3362;50.892;10.692;2022-09-28T10:50:43;2.50;;;1.75;;
6651;SDS011;3362;50.892;10.692;2022-09-28T10:53:22;2.05;;;1.35;;
6651;SDS011;3362;50.892;10.692;2022-09-28T10:55:55;4.00;;;1.30;;
6651;SDS011;3362;50.892;10.692;2022-09-28T10:58:23;1.48;;;1.38;;
6651;SDS011;3362;50.892;10.692;2022-09-28T11:00:51;1.15;;;1.00;;
6651;SDS011;3362;50.892;10.692;2022-09-28T11:03:18;4.63;;;1.10;;
6651;SDS011;3362;50.892;10.692;2022-09-28T11:05:51;1.50;;;1.13;;
6651;SDS011;3362;50.892;10.692;2022-09-28T11:08:19;1.30;;;0.82;;
6651;SDS011;3362;50.892;10.692;2022-09-28T11:10:47;2.15;;;0.85;;
6651;SDS011;3362;50.892;10.692;2022-09-28T11:13:26;1.92;;;1.08;;
6651;SDS011;3362;50.892;10.692;2022-09-28T11:15:53;1.55;;;0.80;;
6651;SDS011;3362;50.892;10.692;2022-09-28T11:18:24;0.77;;;0.77;;
6651;SDS011;3362;50.892;10.692;2022-09-28T11:20:50;2.05;;;0.73;;
6651;SDS011;3362;50.892;10.692;2022-09-28T11:23:18;3.35;;;0.77;;
6651;SDS011;3362;50.892;10.692;2022-09-28T11:25:53;1.67;;;0.90;;
6651;SDS011;3362;50.892;10.692;2022-09-28T11:28:22;2.08;;;0.60;;
6651;SDS011;3362;50.892;10.692;2022-09-28T11:30:49;0.77;;;0.65;;
6651;SDS011;3362;50.892;10.692;2022-09-28T11:33:18;1.00;;;0.70;;
6651;SDS011;3362;50.892;10.692;2022-09-28T11:35:47;0.77;;;0.57;;
6651;SDS011;3362;50.892;10.692;2022-09-28T11:38:28;0.82;;;0.60;;
6651;SDS011;3362;50.892;10.692;2022-09-28T11:41:00;0.60;;;0.50;;
6651;SDS011;3362;50.892;10.692;2022-09-28T11:43:35;1.10;;;0.60;;
6651;SDS011;3362;50.892;10.692;2022-09-28T11:46:06;0.88;;;0.77;;
6651;SDS011;3362;50.892;10.692;2022-09-28T11:48:38;1.40;;;0.90;;
6651;SDS011;3362;50.892;10.692;2022-09-28T11:51:07;1.20;;;1.10;;
6651;SDS011;3362;50.892;10.692;2022-09-28T11:53:37;1.40;;;1.23;;
6651;SDS011;3362;50.892;10.692;2022-09-28T11:56:05;1.95;;;1.17;;
6651;SDS011;3362;50.892;10.692;2022-09-28T11:58:36;1.10;;;0.80;;
6651;SDS011;3362;50.892;10.692;2022-09-28T12:01:07;1.23;;;0.73;;
6651;SDS011;3362;50.892;10.692;2022-09-28T12:03:39;0.70;;;0.63;;
6651;SDS011;3362;50.892;10.692;2022-09-28T12:06:07;2.15;;;0.80;;
6651;SDS011;3362;50.892;10.692;2022-09-28T12:08:35;2.75;;;0.60;;
6651;SDS011;3362;50.892;10.692;2022-09-28T12:11:06;0.73;;;0.73;;
6651;SDS011;3362;50.892;10.692;2022-09-28T12:13:34;1.67;;;0.45;;
6651;SDS011;3362;50.892;10.692;2022-09-28T12:16:03;0.60;;;0.40;;
6651;SDS011;3362;50.892;10.692;2022-09-28T12:18:32;0.68;;;0.50;;
6651;SDS011;3362;50.892;10.692;2022-09-28T12:21:07;0.60;;;0.60;;
6651;SDS011;3362;50.892;10.692;2022-09-28T12:23:34;0.40;;;0.40;;
6651;SDS011;3362;50.892;10.692;2022-09-28T12:26:02;0.50;;;0.32;;
6651;SDS011;3362;50.892;10.692;2022-09-28T12:28:31;0.70;;;0.32;;
6651;SDS011;3362;50.892;10.692;2022-09-28T12:31:04;0.50;;;0.40;;
6651;SDS011;3362;50.892;10.692;2022-09-28T12:33:34;0.82;;;0.52;;
6651;SDS011;3362;50.892;10.692;2022-09-28T12:36:03;0.30;;;0.30;;
6651;SDS011;3362;50.892;10.692;2022-09-28T12:38:40;0.50;;;0.50;;
6651;SDS011;3362;50.892;10.692;2022-09-28T12:41:14;0.70;;;0.70;;
6651;SDS011;3362;50.892;10.692;2022-09-28T12:43:45;0.65;;;0.60;;
6651;SDS011;3362;50.892;10.692;2022-09-28T12:46:27;0.45;;;0.45;;
6651;SDS011;3362;50.892;10.692;2022-09-28T12:49:03;0.68;;;0.63;;
6651;SDS011;3362;50.892;10.692;2022-09-28T12:51:35;0.38;;;0.38;;
6651;SDS011;3362;50.892;10.692;2022-09-28T12:54:09;0.60;;;0.45;;
6651;SDS011;3362;50.892;10.692;2022-09-28T12:56:45;0.80;;;0.50;;
6651;SDS011;3362;50.892;10.692;2022-09-28T12:59:17;0.50;;;0.50;;
6651;SDS011;3362;50.892;10.692;2022-09-28T13:01:52;0.45;;;0.45;;
6651;SDS011;3362;50.892;10.692;2022-09-28T13:04:30;1.08;;;0.73;;
6651;SDS011;3362;50.892;10.692;2022-09-28T13:06:59;1.70;;;0.75;;
6651;SDS011;3362;50.892;10.692;2022-09-28T13:09:29;1.65;;;0.60;;
6651;SDS011;3362;50.892;10.692;2022-09-28T13:12:03;0.30;;;0.30;;
6651;SDS011;3362;50.892;10.692;2022-09-28T13:14:37;0.77;;;0.50;;
6651;SDS011;3362;50.892;10.692;2022-09-28T13:17:12;1.38;;;0.80;;
6651;SDS011;3362;50.892;10.692;2022-09-28T13:19:44;1.35;;;0.75;;
6651;SDS011;3362;50.892;10.692;2022-09-28T13:22:17;1.30;;;0.70;;
6651;SDS011;3362;50.892;10.692;2022-09-28T13:24:46;0.75;;;0.50;;
6651;SDS011;3362;50.892;10.692;2022-09-28T13:27:14;0.85;;;0.70;;
6651;SDS011;3362;50.892;10.692;2022-09-28T13:29:41;2.03;;;0.63;;
6651;SDS011;3362;50.892;10.692;2022-09-28T13:32:08;0.40;;;0.40;;
6651;SDS011;3362;50.892;10.692;2022-09-28T13:34:36;0.70;;;0.65;;
6651;SDS011;3362;50.892;10.692;2022-09-28T13:37:06;0.65;;;0.60;;
6651;SDS011;3362;50.892;10.692;2022-09-28T13:39:34;8.48;;;0.50;;
6651;SDS011;3362;50.892;10.692;2022-09-28T13:42:02;0.88;;;0.60;;
6651;SDS011;3362;50.892;10.692;2022-09-28T13:44:32;0.68;;;0.60;;
6651;SDS011;3362;50.892;10.692;2022-09-28T13:47:08;2.08;;;0.70;;
6651;SDS011;3362;50.892;10.692;2022-09-28T13:49:41;0.50;;;0.50;;
6651;SDS011;3362;50.892;10.692;2022-09-28T13:52:11;1.40;;;0.68;;
6651;SDS011;3362;50.892;10.692;2022-09-28T13:54:50;0.63;;;0.63;;
6651;SDS011;3362;50.892;10.692;2022-09-28T13:57:20;0.63;;;0.63;;
6651;SDS011;3362;50.892;10.692;2022-09-28T13:59:51;0.82;;;0.70;;
6651;SDS011;3362;50.892;10.692;2022-09-28T14:02:23;0.75;;;0.70;;
6651;SDS011;3362;50.892;10.692;2022-09-28T14:04:53;1.77;;;0.80;;
6651;SDS011;3362;50.892;10.692;2022-09-28T14:07:22;1.25;;;0.70;;
6651;SDS011;3362;50.892;10.692;2022-09-28T14:10:06;1.30;;;0.80;;
6651;SDS011;3362;50.892;10.692;2022-09-28T14:12:46;0.68;;;0.63;;
6651;SDS011;3362;50.892;10.692;2022-09-28T14:17:58;0.68;;;0.68;;
6651;SDS011;3362;50.892;10.692;2022-09-28T14:20:25;1.17;;;0.80;;
6651;SDS011;3362;50.892;10.692;2022-09-28T14:23:00;0.93;;;0.75;;
6651;SDS011;3362;50.892;10.692;2022-09-28T14:25:31;1.67;;;0.70;;
6651;SDS011;3362;50.892;10.692;2022-09-28T14:28:03;0.85;;;0.77;;
6651;SDS011;3362;50.892;10.692;2022-09-28T14:30:44;1.88;;;0.70;;
6651;SDS011;3362;50.892;10.692;2022-09-28T14:33:14;0.40;;;0.40;;
6651;SDS011;3362;50.892;10.692;2022-09-28T14:35:42;0.45;;;0.45;;
6651;SDS011;3362;50.892;10.692;2022-09-28T14:38:13;0.47;;;0.40;;
6651;SDS011;3362;50.892;10.692;2022-09-28T14:41:02;0.52;;;0.50;;
6651;SDS011;3362;50.892;10.692;2022-09-28T14:43:36;0.40;;;0.40;;
6651;SDS011;3362;50.892;10.692;2022-09-28T14:46:26;0.52;;;0.45;;
6651;SDS011;3362;50.892;10.692;2022-09-28T14:48:53;1.00;;;0.70;;
6651;SDS011;3362;50.892;10.692;2022-09-28T14:54:11;0.40;;;0.40;;
6651;SDS011;3362;50.892;10.692;2022-09-28T14:56:39;0.30;;;0.30;;
6651;SDS011;3362;50.892;10.692;2022-09-28T14:59:10;0.20;;;0.20;;
6651;SDS011;3362;50.892;10.692;2022-09-28T15:01:39;0.32;;;0.25;;
6651;SDS011;3362;50.892;10.692;2022-09-28T15:04:05;0.68;;;0.20;;
6651;SDS011;3362;50.892;10.692;2022-09-28T15:06:42;0.10;;;0.10;;
6651;SDS011;3362;50.892;10.692;2022-09-28T15:11:50;0.30;;;0.30;;
6651;SDS011;3362;50.892;10.692;2022-09-28T15:14:22;0.30;;;0.28;;
6651;SDS011;3362;50.892;10.692;2022-09-28T15:16:49;0.25;;;0.25;;
6651;SDS011;3362;50.892;10.692;2022-09-28T15:19:18;0.25;;;0.25;;
6651;SDS011;3362;50.892;10.692;2022-09-28T15:21:47;0.20;;;0.20;;
6651;SDS011;3362;50.892;10.692;2022-09-28T15:24:25;0.38;;;0.30;;
6651;SDS011;3362;50.892;10.692;2022-09-28T15:26:52;0.40;;;0.28;;